createdAt,value
2018-11-14T00:00:31.511Z,3.76
2018-11-14T00:03:01.874Z,3.82
2018-11-14T00:05:31.125Z,3.77
2018-11-14T00:08:00.419Z,3.74
2018-11-14T00:10:29.608Z,3.78
2018-11-14T00:12:58.812Z,3.85
2018-11-14T00:15:27.889Z,3.90
2018-11-14T00:17:57.045Z,3.93
2018-11-14T00:20:26.239Z,3.78
2018-11-14T00:22:55.649Z,3.72
2018-11-14T00:25:24.915Z,3.76
2018-11-14T00:27:54.261Z,3.84
2018-11-14T00:30:24.686Z,3.72
2018-11-14T00:32:54.023Z,3.67
2018-11-14T00:35:23.215Z,3.75
2018-11-14T00:37:52.639Z,3.63
2018-11-14T00:40:22.039Z,3.59
2018-11-14T00:42:51.525Z,3.56
2018-11-14T00:45:22.000Z,3.55
2018-11-14T00:47:51.621Z,3.57
2018-11-14T00:50:21.338Z,3.53
2018-11-14T00:52:50.478Z,3.53
2018-11-14T00:55:20.973Z,3.51
2018-11-14T00:57:51.004Z,3.52
2018-11-14T01:00:22.527Z,3.52
2018-11-14T01:02:51.878Z,3.48
2018-11-14T01:05:21.149Z,3.38
2018-11-14T01:07:50.450Z,3.36
2018-11-14T01:10:21.194Z,3.33
2018-11-14T01:12:51.016Z,3.37
2018-11-14T01:15:22.662Z,3.30
2018-11-14T01:17:51.926Z,3.36
2018-11-14T01:20:22.230Z,3.37
2018-11-14T01:22:51.452Z,3.43
2018-11-14T01:25:20.867Z,3.48
2018-11-14T01:27:50.177Z,3.48
2018-11-14T01:30:23.178Z,3.46
2018-11-14T01:32:52.797Z,3.33
2018-11-14T01:35:22.171Z,3.32
2018-11-14T01:37:51.582Z,3.31
2018-11-14T01:40:22.798Z,3.34
2018-11-14T01:42:54.502Z,3.45
2018-11-14T01:45:24.010Z,3.46
2018-11-14T01:47:53.361Z,3.41
2018-11-14T01:50:22.586Z,3.42
2018-11-14T01:52:51.982Z,3.45
2018-11-14T01:55:21.744Z,3.43
2018-11-14T01:57:50.973Z,3.44
2018-11-14T02:00:21.727Z,3.45
2018-11-14T02:02:51.137Z,3.51
2018-11-14T02:05:20.617Z,3.49
2018-11-14T02:07:49.819Z,3.43
2018-11-14T02:10:20.090Z,3.47
2018-11-14T02:12:49.568Z,3.41
2018-11-14T02:15:21.906Z,3.40
2018-11-14T02:17:51.352Z,3.44
2018-11-14T02:20:20.856Z,3.52
2018-11-14T02:22:50.197Z,3.59
2018-11-14T02:25:19.456Z,3.57
2018-11-14T02:27:48.438Z,3.53
2018-11-14T02:30:19.686Z,3.45
2018-11-14T02:32:49.027Z,3.46
2018-11-14T02:35:18.315Z,3.50
2018-11-14T02:37:47.947Z,3.41
2018-11-14T02:40:19.139Z,3.36
2018-11-14T02:42:48.651Z,3.36
2018-11-14T02:45:17.919Z,3.32
2018-11-14T02:47:47.170Z,3.30
2018-11-14T02:50:17.432Z,3.37
2018-11-14T02:52:46.671Z,3.40
2018-11-14T02:55:16.837Z,3.38
2018-11-14T02:57:46.450Z,3.36
2018-11-14T03:00:17.582Z,3.43
2018-11-14T03:02:46.874Z,3.33
2018-11-14T03:05:16.386Z,3.28
2018-11-14T03:07:45.657Z,3.21
2018-11-14T03:10:17.286Z,3.14
2018-11-14T03:12:46.639Z,3.11
2018-11-14T03:15:18.642Z,3.15
2018-11-14T03:17:48.000Z,3.21
2018-11-14T03:20:18.341Z,3.26
2018-11-14T03:22:47.694Z,3.25
2018-11-14T03:25:16.882Z,3.30
2018-11-14T03:27:46.101Z,3.28
2018-11-14T03:30:16.487Z,3.25
2018-11-14T03:32:46.147Z,3.25
2018-11-14T03:35:15.849Z,3.25
2018-11-14T03:37:45.131Z,3.29
2018-11-14T03:40:15.396Z,3.31
2018-11-14T03:42:44.600Z,3.42
2018-11-14T03:45:14.788Z,3.59
2018-11-14T03:47:44.101Z,3.60
2018-11-14T03:50:13.324Z,3.61
2018-11-14T03:52:42.630Z,3.67
2018-11-14T03:55:11.929Z,3.61
2018-11-14T03:57:41.259Z,3.57
2018-11-14T04:00:12.774Z,3.65
2018-11-14T04:02:42.303Z,3.65
2018-11-14T04:05:11.666Z,3.75
2018-11-14T04:07:41.834Z,3.78
2018-11-14T04:10:12.906Z,3.72
2018-11-14T04:12:42.309Z,3.68
2018-11-14T04:15:12.803Z,3.51
2018-11-14T04:17:41.968Z,3.38
2018-11-14T04:20:13.386Z,3.30
2018-11-14T04:22:42.674Z,3.29
2018-11-14T04:25:13.949Z,3.26
2018-11-14T04:27:43.793Z,3.24
2018-11-14T04:30:15.558Z,3.34
2018-11-14T04:32:45.044Z,3.49
2018-11-14T04:35:15.172Z,3.51
2018-11-14T04:37:44.575Z,3.50
2018-11-14T04:40:16.685Z,3.38
2018-11-14T04:42:45.975Z,3.31
2018-11-14T04:45:17.645Z,3.37
2018-11-14T04:47:46.834Z,3.32
2018-11-14T04:50:18.035Z,3.26
2018-11-14T04:52:48.293Z,3.30
2018-11-14T04:55:18.709Z,3.34
2018-11-14T04:57:48.207Z,3.34
2018-11-14T05:00:18.357Z,3.34
2018-11-14T05:02:48.556Z,3.42
2018-11-14T05:05:18.978Z,3.63
2018-11-14T05:07:48.323Z,3.73
2018-11-14T05:10:19.958Z,3.73
2018-11-14T05:12:49.628Z,3.63
2018-11-14T05:15:20.915Z,3.50
2018-11-14T05:17:50.706Z,3.42
2018-11-14T05:20:20.732Z,3.44
2018-11-14T05:22:50.049Z,3.58
2018-11-14T05:25:19.642Z,3.63
2018-11-14T05:27:48.969Z,3.64
2018-11-14T05:30:19.667Z,3.75
2018-11-14T05:32:49.913Z,3.75
2018-11-14T05:35:18.868Z,3.73
2018-11-14T05:37:48.612Z,3.82
2018-11-14T05:40:20.035Z,3.96
2018-11-14T05:42:49.770Z,4.00
2018-11-14T05:45:23.386Z,3.96
2018-11-14T05:47:52.855Z,3.92
2018-11-14T05:50:22.941Z,3.94
2018-11-14T05:52:52.221Z,3.96
2018-11-14T05:55:21.521Z,4.01
2018-11-14T05:57:51.139Z,4.07
2018-11-14T06:00:35.158Z,4.12
2018-11-14T06:03:05.202Z,4.23
2018-11-14T06:05:34.498Z,4.32
2018-11-14T06:08:03.787Z,4.51
2018-11-14T06:10:33.014Z,4.56
2018-11-14T06:13:02.403Z,4.73
2018-11-14T06:15:31.950Z,5.03
2018-11-14T06:18:01.232Z,5.25
2018-11-14T06:20:30.439Z,5.57
2018-11-14T06:22:59.721Z,6.05
2018-11-14T06:25:31.236Z,6.54
2018-11-14T06:28:01.879Z,6.95
2018-11-14T06:30:31.280Z,7.23
2018-11-14T06:33:01.118Z,7.34
2018-11-14T06:35:30.435Z,7.46
2018-11-14T06:37:59.829Z,7.66
2018-11-14T06:40:29.245Z,7.99
2018-11-14T06:42:58.330Z,8.23
2018-11-14T06:45:28.829Z,7.88
2018-11-14T06:47:59.302Z,7.61
2018-11-14T06:50:28.576Z,7.64
2018-11-14T06:53:01.339Z,7.80
2018-11-14T06:55:30.560Z,8.04
2018-11-14T06:58:00.020Z,7.98
2018-11-14T07:00:31.231Z,8.33
2018-11-14T07:03:01.418Z,8.57
2018-11-14T07:05:30.889Z,8.80
2018-11-14T07:08:00.036Z,8.96
2018-11-14T07:10:30.774Z,9.44
2018-11-14T07:13:05.728Z,9.63
2018-11-14T07:15:35.692Z,10.16
2018-11-14T07:18:05.400Z,10.52
2018-11-14T07:20:35.937Z,10.66
2018-11-14T07:23:05.286Z,10.78
2018-11-14T07:25:34.710Z,11.06
2018-11-14T07:28:03.900Z,11.14
2018-11-14T07:30:33.566Z,11.01
2018-11-14T07:33:04.891Z,10.90
2018-11-14T07:35:34.132Z,10.56
2018-11-14T07:38:43.285Z,10.27
2018-11-14T07:41:13.826Z,9.87
2018-11-14T07:43:43.519Z,9.32
2018-11-14T07:46:13.233Z,8.87
2018-11-14T07:48:42.831Z,8.55
2018-11-14T07:51:12.254Z,8.42
2018-11-14T07:53:41.439Z,8.37
2018-11-14T07:56:10.707Z,8.39
2018-11-14T07:58:39.948Z,8.48
2018-11-14T08:01:09.455Z,8.62
2018-11-14T08:03:38.745Z,8.76
2018-11-14T08:06:08.106Z,8.92
2018-11-14T08:08:37.324Z,9.15
2018-11-14T08:11:07.139Z,9.23
2018-11-14T08:13:37.394Z,9.38
2018-11-14T08:16:06.875Z,9.54
2018-11-14T08:18:36.330Z,9.54
2018-11-14T08:21:05.730Z,9.99
2018-11-14T08:23:35.314Z,10.32
2018-11-14T08:26:04.948Z,10.48
2018-11-14T08:28:34.254Z,10.56
2018-11-14T08:31:03.510Z,10.54
2018-11-14T08:33:32.734Z,10.58
2018-11-14T08:36:02.055Z,10.55
2018-11-14T08:38:31.303Z,10.50
2018-11-14T08:41:00.513Z,10.64
2018-11-14T08:43:29.820Z,10.66
2018-11-14T08:48:34.886Z,10.72
2018-11-14T08:51:04.088Z,10.77
2018-11-14T08:53:33.246Z,10.76
2018-11-14T08:56:02.398Z,10.71
2018-11-14T08:58:31.545Z,10.68
2018-11-14T09:01:00.842Z,10.58
2018-11-14T09:03:30.068Z,10.48
2018-11-14T09:05:59.329Z,10.47
2018-11-14T09:08:28.591Z,10.42
2018-11-14T09:10:58.211Z,10.48
2018-11-14T09:13:27.431Z,10.53
2018-11-14T09:15:56.791Z,10.57
2018-11-14T09:18:26.208Z,10.66
2018-11-14T09:20:55.659Z,10.69
2018-11-14T09:23:25.534Z,10.62
2018-11-14T09:25:54.783Z,10.63
2018-11-14T09:28:23.986Z,10.75
2018-11-14T09:30:53.211Z,10.97
2018-11-14T09:33:22.455Z,11.01
2018-11-14T09:35:51.558Z,11.03
2018-11-14T09:38:20.891Z,10.83
2018-11-14T09:40:50.145Z,10.97
2018-11-14T09:43:19.414Z,11.11
2018-11-14T09:45:48.774Z,10.89
2018-11-14T09:48:18.027Z,11.01
2018-11-14T09:50:47.337Z,11.15
2018-11-14T09:53:16.514Z,10.96
2018-11-14T09:55:45.829Z,11.16
2018-11-14T09:58:15.175Z,11.32
2018-11-14T10:00:44.404Z,11.13
2018-11-14T10:03:16.067Z,11.30
2018-11-14T10:05:45.261Z,11.41
2018-11-14T10:08:14.520Z,11.39
2018-11-14T10:10:43.913Z,11.26
2018-11-14T10:13:13.174Z,11.26
2018-11-14T10:15:42.544Z,11.28
2018-11-14T10:18:11.651Z,11.23
2018-11-14T10:20:40.990Z,11.03
2018-11-14T10:23:10.254Z,10.87
2018-11-14T10:25:39.113Z,10.94
2018-11-14T10:28:08.938Z,10.97
2018-11-14T10:30:38.303Z,10.69
2018-11-14T10:33:07.671Z,10.75
2018-11-14T10:35:37.072Z,10.77
2018-11-14T10:38:06.817Z,10.69
2018-11-14T10:40:36.239Z,10.54
2018-11-14T10:43:05.593Z,10.39
2018-11-14T10:45:34.807Z,10.39
2018-11-14T10:48:04.165Z,10.15
2018-11-14T10:50:33.430Z,10.21
2018-11-14T10:53:02.726Z,10.12
2018-11-14T10:55:32.038Z,10.29
2018-11-14T10:58:01.215Z,10.28
2018-11-14T11:00:35.597Z,10.35
2018-11-14T11:03:09.715Z,10.39
2018-11-14T11:05:43.946Z,10.41
2018-11-14T11:08:18.959Z,10.36
2018-11-14T11:10:52.183Z,10.44
2018-11-14T11:13:26.528Z,10.47
2018-11-14T11:16:00.634Z,10.29
2018-11-14T11:18:31.487Z,10.25
2018-11-14T11:21:00.723Z,10.27
2018-11-14T11:23:30.236Z,10.35
2018-11-14T11:25:59.502Z,10.39
2018-11-14T11:28:28.780Z,10.36
2018-11-14T11:30:58.103Z,10.27
2018-11-14T11:33:27.401Z,10.26
2018-11-14T11:35:56.694Z,10.41
2018-11-14T11:38:26.210Z,10.42
2018-11-14T11:40:55.775Z,10.40
2018-11-14T11:43:25.004Z,10.50
2018-11-14T11:45:54.116Z,10.68
2018-11-14T11:48:23.521Z,10.46
2018-11-14T11:50:52.820Z,10.51
2018-11-14T11:53:22.456Z,10.59
2018-11-14T11:55:51.730Z,10.63
2018-11-14T11:58:21.008Z,10.51
2018-11-14T12:00:50.315Z,10.49
2018-11-14T12:03:19.390Z,10.36
2018-11-14T12:05:48.829Z,10.25
2018-11-14T12:08:17.865Z,10.20
2018-11-14T12:10:47.196Z,10.24
2018-11-14T12:13:16.539Z,10.15
2018-11-14T12:15:45.754Z,10.08
2018-11-14T12:18:15.041Z,10.12
2018-11-14T12:20:44.339Z,10.17
2018-11-14T12:23:13.594Z,10.22
2018-11-14T12:25:42.930Z,10.14
2018-11-14T12:28:12.350Z,10.10
2018-11-14T12:30:41.518Z,9.96
2018-11-14T12:33:10.842Z,9.92
2018-11-14T12:35:40.021Z,9.86
2018-11-14T12:38:09.391Z,9.89
2018-11-14T12:40:38.830Z,9.72
2018-11-14T12:43:08.354Z,9.64
2018-11-14T12:45:37.579Z,9.63
2018-11-14T12:48:07.081Z,9.60
2018-11-14T12:50:36.571Z,9.53
2018-11-14T12:53:05.891Z,9.42
2018-11-14T12:55:34.897Z,9.41
2018-11-14T12:58:05.821Z,9.28
2018-11-14T13:00:35.114Z,9.28
2018-11-14T13:03:04.523Z,9.40
2018-11-14T13:05:33.846Z,9.30
2018-11-14T13:08:03.339Z,9.17
2018-11-14T13:10:32.927Z,9.18
2018-11-14T13:13:02.381Z,9.25
2018-11-14T13:15:31.702Z,9.22
2018-11-14T13:18:00.862Z,9.14
2018-11-14T13:20:30.133Z,9.01
2018-11-14T13:22:59.405Z,9.02
2018-11-14T13:25:28.636Z,9.04
2018-11-14T13:27:58.447Z,9.05
2018-11-14T13:30:27.529Z,9.02
2018-11-14T13:32:56.661Z,9.03
2018-11-14T13:35:26.295Z,9.05
2018-11-14T13:37:55.504Z,9.05
2018-11-14T13:40:25.235Z,9.07
2018-11-14T13:42:54.546Z,9.08
2018-11-14T13:45:23.774Z,9.11
2018-11-14T13:47:53.299Z,9.12
2018-11-14T13:50:23.248Z,9.13
2018-11-14T13:52:52.597Z,9.09
2018-11-14T13:55:22.194Z,8.96
2018-11-14T13:57:52.235Z,9.02
2018-11-14T14:00:22.454Z,9.13
2018-11-14T14:02:52.818Z,9.19
2018-11-14T14:05:23.514Z,9.15
2018-11-14T14:07:52.921Z,9.18
2018-11-14T14:10:22.225Z,9.17
2018-11-14T14:12:53.010Z,9.09
2018-11-14T14:15:23.574Z,9.14
2018-11-14T14:17:52.846Z,9.10
2018-11-14T14:20:52.138Z,9.13
2018-11-14T14:23:21.467Z,9.05
2018-11-14T14:25:50.679Z,9.09
2018-11-14T14:28:19.904Z,9.07
2018-11-14T14:30:49.224Z,9.12
2018-11-14T14:33:18.292Z,9.11
2018-11-14T14:35:47.754Z,9.16
2018-11-14T14:38:17.126Z,9.22
2018-11-14T14:40:46.690Z,9.38
2018-11-14T14:43:15.799Z,9.37
2018-11-14T14:45:45.122Z,9.38
2018-11-14T14:48:14.279Z,9.30
2018-11-14T14:50:43.388Z,9.19
2018-11-14T14:53:12.640Z,9.28
2018-11-14T14:55:41.913Z,9.31
2018-11-14T14:58:11.431Z,9.33
2018-11-14T15:00:40.806Z,9.29
2018-11-14T15:03:10.349Z,9.25
2018-11-14T15:05:39.656Z,9.21
2018-11-14T15:08:09.074Z,9.20
2018-11-14T15:10:38.325Z,9.11
2018-11-14T15:13:07.756Z,9.17
2018-11-14T15:15:37.203Z,9.15
2018-11-14T15:18:06.547Z,9.11
2018-11-14T15:20:35.970Z,9.08
2018-11-14T15:23:05.194Z,9.05
2018-11-14T15:25:34.470Z,8.97
2018-11-14T15:28:04.074Z,9.05
2018-11-14T15:30:33.340Z,8.93
2018-11-14T15:33:02.824Z,8.85
2018-11-14T15:35:32.232Z,8.72
2018-11-14T15:38:01.444Z,8.78
2018-11-14T15:40:31.079Z,8.71
2018-11-14T15:43:00.367Z,8.59
2018-11-14T15:45:30.312Z,8.54
2018-11-14T15:47:59.709Z,8.45
2018-11-14T15:50:30.207Z,8.46
2018-11-14T15:53:00.178Z,8.43
2018-11-14T15:55:29.549Z,8.38
2018-11-14T15:57:58.919Z,8.44
2018-11-14T16:00:29.283Z,8.46
2018-11-14T16:02:58.599Z,8.35
2018-11-14T16:05:29.371Z,8.38
2018-11-14T16:07:59.827Z,8.35
2018-11-14T16:10:30.315Z,8.35
2018-11-14T16:12:59.760Z,8.22
2018-11-14T16:15:32.350Z,8.17
2018-11-14T16:18:01.569Z,8.13
2018-11-14T16:20:30.986Z,8.07
2018-11-14T16:23:00.134Z,8.07
2018-11-14T16:25:29.577Z,8.04
2018-11-14T16:28:00.225Z,8.00
2018-11-14T16:30:32.418Z,7.98
2018-11-14T16:33:03.151Z,7.95
2018-11-14T16:35:32.366Z,7.95
2018-11-14T16:38:01.691Z,7.99
2018-11-14T16:40:32.035Z,7.96
2018-11-14T16:43:02.661Z,8.00
2018-11-14T16:45:32.190Z,8.00
2018-11-14T16:48:01.439Z,7.98
2018-11-14T16:50:30.670Z,7.96
2018-11-14T16:52:59.869Z,7.93
2018-11-14T16:55:29.041Z,7.89
2018-11-14T16:57:58.702Z,7.90
2018-11-14T17:00:30.023Z,7.88
2018-11-14T17:02:59.415Z,7.88
2018-11-14T17:05:29.785Z,7.92
2018-11-14T17:07:58.841Z,7.90
2018-11-14T17:10:28.376Z,7.95
2018-11-14T17:12:58.893Z,7.93
2018-11-14T17:15:28.470Z,7.96
2018-11-14T17:17:57.740Z,7.86
2018-11-14T17:20:26.888Z,7.98
2018-11-14T17:22:56.352Z,8.03
2018-11-14T17:25:25.723Z,8.04
2018-11-14T17:27:55.107Z,8.08
2018-11-14T17:30:25.451Z,8.10
2018-11-14T17:32:55.085Z,8.10
2018-11-14T17:35:24.490Z,8.10
2018-11-14T17:37:53.770Z,8.13
2018-11-14T17:40:27.973Z,8.22
2018-11-14T17:42:57.300Z,8.30
2018-11-14T17:45:27.824Z,8.30
2018-11-14T17:47:57.637Z,8.35
2018-11-14T17:50:28.177Z,8.42
2018-11-14T17:52:58.015Z,8.44
2018-11-14T17:55:27.491Z,8.47
2018-11-14T17:57:56.898Z,8.43
2018-11-14T18:00:27.387Z,8.49
2018-11-14T18:02:56.762Z,8.53
2018-11-14T18:05:27.190Z,8.54
2018-11-14T18:07:56.534Z,8.57
2018-11-14T18:10:26.976Z,8.57
2018-11-14T18:12:57.262Z,8.56
2018-11-14T18:15:26.467Z,8.54
2018-11-14T18:17:56.326Z,8.62
2018-11-14T18:20:27.022Z,8.60
2018-11-14T18:22:56.676Z,8.54
2018-11-14T18:25:26.058Z,8.58
2018-11-14T18:27:55.434Z,8.58
2018-11-14T18:30:26.566Z,8.55
2018-11-14T18:32:56.661Z,8.62
2018-11-14T18:35:26.623Z,8.60
2018-11-14T18:37:56.515Z,8.58
2018-11-14T18:40:27.178Z,8.62
2018-11-14T18:42:56.448Z,8.60
2018-11-14T18:45:27.283Z,8.58
2018-11-14T18:47:57.121Z,8.58
2018-11-14T18:50:26.606Z,8.57
2018-11-14T18:52:56.005Z,8.70
2018-11-14T18:55:26.526Z,8.76
2018-11-14T18:57:55.969Z,8.82
2018-11-14T19:00:26.551Z,8.73
2018-11-14T19:02:55.929Z,8.80
2018-11-14T19:05:25.472Z,8.79
2018-11-14T19:07:54.610Z,8.74
2018-11-14T19:10:25.217Z,8.81
2018-11-14T19:12:54.562Z,8.80
2018-11-14T19:15:26.029Z,8.84
2018-11-14T19:17:55.449Z,8.84
2018-11-14T19:20:26.983Z,8.98
2018-11-14T19:22:57.002Z,8.95
2018-11-14T19:25:28.770Z,8.92
2018-11-14T19:27:58.098Z,9.02
2018-11-14T19:30:29.388Z,9.03
2018-11-14T19:32:59.328Z,8.95
2018-11-14T19:35:28.622Z,8.99
2018-11-14T19:37:58.207Z,9.03
2018-11-14T19:40:31.615Z,9.04
2018-11-14T19:43:02.075Z,9.04
2018-11-14T19:45:33.590Z,9.04
2018-11-14T19:48:03.018Z,8.99
2018-11-14T19:50:32.861Z,8.97
2018-11-14T19:53:02.043Z,8.97
2018-11-14T19:55:31.487Z,9.01
2018-11-14T19:58:01.834Z,9.00
2018-11-14T20:00:39.463Z,8.96
2018-11-14T20:03:09.421Z,8.98
2018-11-14T20:05:38.651Z,9.02
2018-11-14T20:08:08.066Z,8.96
2018-11-14T20:10:37.313Z,9.12
2018-11-14T20:13:06.558Z,9.06
2018-11-14T20:15:37.117Z,9.02
2018-11-14T20:18:06.883Z,8.98
2018-11-14T20:20:37.182Z,8.98
2018-11-14T20:23:06.628Z,8.94
2018-11-14T20:25:36.102Z,8.87
2018-11-14T20:28:05.619Z,8.80
2018-11-14T20:30:36.503Z,8.85
2018-11-14T20:33:07.986Z,8.87
2018-11-14T20:35:37.238Z,8.79
2018-11-14T20:38:06.930Z,8.79
2018-11-14T20:40:41.159Z,8.79
2018-11-14T20:43:10.541Z,8.84
2018-11-14T20:45:39.846Z,8.90
2018-11-14T20:48:09.026Z,8.95
2018-11-14T20:50:38.438Z,8.96
2018-11-14T20:53:08.822Z,8.94
2018-11-14T20:55:38.067Z,8.84
2018-11-14T20:58:07.339Z,8.79
2018-11-14T21:00:37.528Z,8.85
2018-11-14T21:03:07.700Z,8.83
2018-11-14T21:05:37.163Z,8.79
2018-11-14T21:08:06.929Z,8.78
2018-11-14T21:10:36.479Z,8.95
2018-11-14T21:13:06.360Z,8.81
2018-11-14T21:15:37.128Z,8.74
2018-11-14T21:18:07.114Z,8.81
2018-11-14T21:20:36.572Z,8.73
2018-11-14T21:23:07.018Z,8.74
2018-11-14T21:25:36.367Z,8.74
2018-11-14T21:28:06.159Z,8.70
2018-11-14T21:30:35.636Z,8.76
2018-11-14T21:33:05.277Z,8.79
2018-11-14T21:35:36.012Z,8.75
2018-11-14T21:38:06.532Z,8.79
2018-11-14T21:40:35.773Z,8.87
2018-11-14T21:43:04.881Z,8.79
2018-11-14T21:45:34.314Z,8.82
2018-11-14T21:48:08.764Z,8.78
2018-11-14T21:50:38.146Z,8.79
2018-11-14T21:53:07.474Z,8.76
2018-11-14T21:55:36.686Z,8.71
2018-11-14T21:58:06.139Z,8.71
2018-11-14T22:00:37.161Z,8.68
2018-11-14T22:03:07.158Z,8.76
2018-11-14T22:05:36.588Z,8.64
2018-11-14T22:08:05.870Z,8.62
2018-11-14T22:10:35.073Z,8.59
2018-11-14T22:13:04.398Z,8.61
2018-11-14T22:15:34.022Z,8.60
2018-11-14T22:18:03.321Z,8.61
2018-11-14T22:20:32.519Z,8.56
2018-11-14T22:23:01.813Z,8.56
2018-11-14T22:25:31.220Z,8.73
2018-11-14T22:28:00.494Z,8.60
2018-11-14T22:30:31.710Z,8.59
2018-11-14T22:33:01.166Z,8.58
2018-11-14T22:35:31.552Z,8.61
2018-11-14T22:38:00.791Z,8.63
2018-11-14T22:40:31.206Z,8.66
2018-11-14T22:43:00.278Z,8.61
2018-11-14T22:45:32.226Z,8.59
2018-11-14T22:48:01.470Z,8.58
2018-11-14T22:50:30.682Z,8.53
2018-11-14T22:52:59.846Z,8.54
2018-11-14T22:55:28.726Z,8.51
2018-11-14T22:57:57.944Z,8.48
2018-11-14T23:00:34.417Z,8.50
2018-11-14T23:03:04.055Z,8.47
2018-11-14T23:05:33.487Z,8.46
2018-11-14T23:08:02.686Z,8.49
2018-11-14T23:10:31.854Z,8.50
2018-11-14T23:13:01.011Z,8.53
2018-11-14T23:15:30.493Z,8.53
2018-11-14T23:17:59.748Z,8.61
2018-11-14T23:20:29.149Z,8.64
2018-11-14T23:22:58.493Z,8.61
2018-11-14T23:25:27.752Z,8.59
2018-11-14T23:27:57.450Z,8.62
2018-11-14T23:30:27.556Z,8.59
2018-11-14T23:32:57.431Z,8.59
2018-11-14T23:35:30.605Z,8.50
2018-11-14T23:38:01.221Z,8.57
2018-11-14T23:40:30.589Z,8.54
2018-11-14T23:42:59.794Z,8.63
2018-11-14T23:45:29.576Z,8.56
2018-11-14T23:47:58.943Z,8.57
2018-11-14T23:50:31.144Z,8.59
2018-11-14T23:53:01.571Z,8.62
2018-11-14T23:55:31.527Z,8.64
2018-11-14T23:58:01.140Z,8.62
